createdAt,value
2019-05-11T00:01:32.337Z,3.13
2019-05-11T00:04:01.786Z,2.03
2019-05-11T00:06:31.269Z,2.77
2019-05-11T00:09:00.716Z,4.23
2019-05-11T00:11:30.111Z,3.23
2019-05-11T00:13:59.576Z,2.40
2019-05-11T00:16:28.953Z,2.10
2019-05-11T00:18:58.360Z,3.37
2019-05-11T00:21:27.844Z,1.90
2019-05-11T00:23:57.325Z,4.00
2019-05-11T00:26:26.792Z,2.23
2019-05-11T00:28:56.162Z,2.83
2019-05-11T00:31:25.692Z,2.03
2019-05-11T00:33:55.131Z,2.50
2019-05-11T00:36:24.595Z,3.17
2019-05-11T00:38:54.047Z,3.10
2019-05-11T00:41:23.502Z,2.00
2019-05-11T00:43:53.028Z,3.10
2019-05-11T00:46:22.457Z,2.90
2019-05-11T00:48:51.912Z,1.97
2019-05-11T00:51:21.362Z,3.37
2019-05-11T00:53:50.911Z,2.70
2019-05-11T00:56:20.382Z,4.87
2019-05-11T00:58:51.035Z,1.97
2019-05-11T01:01:20.781Z,4.13
2019-05-11T01:03:50.154Z,3.47
2019-05-11T01:06:19.652Z,3.43
2019-05-11T01:08:49.037Z,1.60
2019-05-11T01:11:18.528Z,2.83
2019-05-11T01:13:47.886Z,4.60
2019-05-11T01:16:17.224Z,2.73
2019-05-11T01:18:46.734Z,3.30
2019-05-11T01:21:16.130Z,4.30
2019-05-11T01:23:45.509Z,4.97
2019-05-11T01:26:14.871Z,2.63
2019-05-11T01:28:44.232Z,3.17
2019-05-11T01:31:13.685Z,2.73
2019-05-11T01:33:43.125Z,1.53
2019-05-11T01:36:12.560Z,2.37
2019-05-11T01:38:42.057Z,1.47
2019-05-11T01:41:11.492Z,2.33
2019-05-11T01:43:40.964Z,2.97
2019-05-11T01:46:10.392Z,5.03
2019-05-11T01:48:39.872Z,5.50
2019-05-11T01:51:09.269Z,1.40
2019-05-11T01:53:38.657Z,3.43
2019-05-11T01:56:08.029Z,2.97
2019-05-11T01:58:37.393Z,2.10
2019-05-11T02:01:06.751Z,3.33
2019-05-11T02:03:36.104Z,1.50
2019-05-11T02:06:05.777Z,3.07
2019-05-11T02:08:35.275Z,3.67
2019-05-11T02:11:15.482Z,4.10
2019-05-11T02:13:35.776Z,2.20
2019-05-11T02:16:05.265Z,6.00
2019-05-11T02:18:34.734Z,1.70
2019-05-11T02:21:04.210Z,4.80
2019-05-11T02:23:33.692Z,6.47
2019-05-11T02:26:03.139Z,4.13
2019-05-11T02:28:32.532Z,4.03
2019-05-11T02:31:01.966Z,3.10
2019-05-11T02:33:31.412Z,3.73
2019-05-11T02:36:00.840Z,3.20
2019-05-11T02:38:30.321Z,1.83
2019-05-11T02:40:59.753Z,3.87
2019-05-11T02:43:29.235Z,3.73
2019-05-11T02:45:58.573Z,3.00
2019-05-11T02:48:27.914Z,2.27
2019-05-11T02:50:58.652Z,1.83
2019-05-11T02:53:29.821Z,1.63
2019-05-11T02:56:00.289Z,4.87
2019-05-11T02:58:29.771Z,3.47
2019-05-11T03:00:59.199Z,1.60
2019-05-11T03:03:28.708Z,3.10
2019-05-11T03:05:58.223Z,2.40
2019-05-11T03:08:27.673Z,3.57
2019-05-11T03:10:57.136Z,1.53
2019-05-11T03:13:26.571Z,3.47
2019-05-11T03:15:55.935Z,1.40
2019-05-11T03:18:25.261Z,1.80
2019-05-11T03:20:54.723Z,3.77
2019-05-11T03:23:24.182Z,2.17
2019-05-11T03:25:53.629Z,3.63
2019-05-11T03:28:22.970Z,3.30
2019-05-11T03:30:52.419Z,2.90
2019-05-11T03:33:21.845Z,3.43
2019-05-11T03:35:51.266Z,3.80
2019-05-11T03:38:20.731Z,4.70
2019-05-11T03:40:50.144Z,4.70
2019-05-11T03:43:19.533Z,3.50
2019-05-11T03:45:48.917Z,3.93
2019-05-11T03:48:18.275Z,4.80
2019-05-11T03:50:47.725Z,2.13
2019-05-11T03:53:17.166Z,2.80
2019-05-11T03:55:46.603Z,4.50
2019-05-11T03:58:16.090Z,4.20
2019-05-11T04:00:45.669Z,3.37
2019-05-11T04:03:15.120Z,4.80
2019-05-11T04:05:44.499Z,4.63
2019-05-11T04:08:13.977Z,2.47
2019-05-11T04:10:43.367Z,4.10
2019-05-11T04:13:12.730Z,2.43
2019-05-11T04:15:42.183Z,2.33
2019-05-11T04:18:11.563Z,2.77
2019-05-11T04:20:40.966Z,6.07
2019-05-11T04:23:10.407Z,5.57
2019-05-11T04:25:39.854Z,3.60
2019-05-11T04:28:09.299Z,3.93
2019-05-11T04:30:38.858Z,5.13
2019-05-11T04:33:08.219Z,3.17
2019-05-11T04:35:37.628Z,1.53
2019-05-11T04:38:07.073Z,2.10
2019-05-11T04:40:36.475Z,2.30
2019-05-11T04:43:05.939Z,2.47
2019-05-11T04:45:35.335Z,3.00
2019-05-11T04:48:04.699Z,1.53
2019-05-11T04:50:34.152Z,1.40
2019-05-11T04:53:03.489Z,3.77
2019-05-11T04:55:32.892Z,3.93
2019-05-11T04:58:02.314Z,2.97
2019-05-11T05:00:31.789Z,3.43
2019-05-11T05:03:01.204Z,1.77
2019-05-11T05:05:30.615Z,1.20
2019-05-11T05:08:09.163Z,1.60
2019-05-11T05:10:31.232Z,3.70
2019-05-11T05:13:10.258Z,1.77
2019-05-11T05:15:31.726Z,2.10
2019-05-11T05:18:01.201Z,1.23
2019-05-11T05:20:30.638Z,1.33
2019-05-11T05:23:00.050Z,1.77
2019-05-11T05:25:29.518Z,1.80
2019-05-11T05:27:58.879Z,5.43
2019-05-11T05:30:28.270Z,5.20
2019-05-11T05:32:57.677Z,4.00
2019-05-11T05:35:27.058Z,5.30
2019-05-11T05:37:56.426Z,1.93
2019-05-11T05:40:25.881Z,2.70
2019-05-11T05:42:55.311Z,4.57
2019-05-11T05:45:24.712Z,3.57
2019-05-11T05:47:54.283Z,5.30
2019-05-11T05:50:23.638Z,3.33
2019-05-11T05:52:53.087Z,2.43
2019-05-11T05:55:22.505Z,2.87
2019-05-11T05:57:51.976Z,3.77
2019-05-11T06:00:21.789Z,4.00
2019-05-11T06:02:51.276Z,4.07
2019-05-11T06:05:20.710Z,2.33
2019-05-11T06:07:50.067Z,3.47
2019-05-11T06:10:19.540Z,2.23
2019-05-11T06:12:48.933Z,1.30
2019-05-11T06:15:18.390Z,3.37
2019-05-11T06:17:47.863Z,3.63
2019-05-11T06:20:17.447Z,1.90
2019-05-11T06:22:46.846Z,2.30
2019-05-11T06:25:16.246Z,2.23
2019-05-11T06:27:45.715Z,2.67
2019-05-11T06:30:18.255Z,3.47
2019-05-11T06:32:47.695Z,3.93
2019-05-11T06:35:18.062Z,4.73
2019-05-11T06:37:47.455Z,3.23
2019-05-11T06:40:17.296Z,2.30
2019-05-11T06:42:47.131Z,1.87
2019-05-11T06:45:16.648Z,1.63
2019-05-11T06:47:46.031Z,5.33
2019-05-11T06:50:15.953Z,2.60
2019-05-11T06:52:45.383Z,1.63
2019-05-11T06:55:14.781Z,2.70
2019-05-11T06:57:44.233Z,2.57
2019-05-11T07:00:14.154Z,4.60
2019-05-11T07:02:43.508Z,5.43
2019-05-11T07:05:12.987Z,1.73
2019-05-11T07:07:47.478Z,2.77
2019-05-11T07:10:13.675Z,3.17
2019-05-11T07:12:43.019Z,1.90
2019-05-11T07:15:13.308Z,1.80
2019-05-11T07:17:42.785Z,5.23
2019-05-11T07:20:12.349Z,3.77
2019-05-11T07:22:41.767Z,3.20
2019-05-11T07:25:11.292Z,4.17
2019-05-11T07:27:40.771Z,5.40
2019-05-11T07:30:10.901Z,3.70
2019-05-11T07:32:40.344Z,6.60
2019-05-11T07:35:09.792Z,3.67
2019-05-11T07:37:39.162Z,4.93
2019-05-11T07:40:09.070Z,3.80
2019-05-11T07:42:38.523Z,5.30
2019-05-11T07:45:09.036Z,7.83
2019-05-11T07:47:38.747Z,3.93
2019-05-11T07:50:09.664Z,5.57
2019-05-11T07:52:39.077Z,7.00
2019-05-11T07:55:09.144Z,4.23
2019-05-11T07:57:39.234Z,4.27
2019-05-11T08:00:09.867Z,5.17
2019-05-11T08:02:39.205Z,4.23
2019-05-11T08:05:08.969Z,5.03
2019-05-11T08:07:38.780Z,5.70
2019-05-11T08:10:09.007Z,3.73
2019-05-11T08:12:39.363Z,4.53
2019-05-11T08:15:13.180Z,7.53
2019-05-11T08:17:40.501Z,7.60
2019-05-11T08:20:10.319Z,8.73
2019-05-11T08:22:39.794Z,9.30
2019-05-11T08:25:09.917Z,12.13
2019-05-11T08:27:39.307Z,10.40
2019-05-11T08:30:10.437Z,13.50
2019-05-11T08:32:39.791Z,11.40
2019-05-11T08:35:09.603Z,10.53
2019-05-11T08:37:39.014Z,8.87
2019-05-11T08:40:08.638Z,8.10
2019-05-11T08:42:38.103Z,10.13
2019-05-11T08:45:18.819Z,13.80
2019-05-11T08:47:39.016Z,9.17
2019-05-11T08:50:09.481Z,12.43
2019-05-11T08:52:38.957Z,10.57
2019-05-11T08:55:09.181Z,12.20
2019-05-11T08:57:38.936Z,10.83
2019-05-11T09:00:13.419Z,10.87
2019-05-11T09:02:46.640Z,10.37
2019-05-11T09:05:15.469Z,12.10
2019-05-11T09:07:44.918Z,14.23
2019-05-11T09:10:14.490Z,16.70
2019-05-11T09:12:43.878Z,11.87
2019-05-11T09:15:28.099Z,9.70
2019-05-11T09:17:44.934Z,11.27
2019-05-11T09:20:14.808Z,10.53
2019-05-11T09:22:44.253Z,12.43
2019-05-11T09:25:13.827Z,13.57
2019-05-11T09:27:43.551Z,10.53
2019-05-11T09:30:13.526Z,14.03
2019-05-11T09:32:42.961Z,13.67
2019-05-11T09:35:12.414Z,16.47
2019-05-11T09:37:41.869Z,20.63
2019-05-11T09:40:11.501Z,16.43
2019-05-11T09:42:40.945Z,12.67
2019-05-11T09:45:10.384Z,11.70
2019-05-11T09:47:39.751Z,14.87
2019-05-11T09:50:09.511Z,12.27
2019-05-11T09:52:38.949Z,13.07
2019-05-11T09:55:09.039Z,16.27
2019-05-11T09:57:38.619Z,12.07
2019-05-11T10:00:09.813Z,14.40
2019-05-11T10:02:39.261Z,16.30
2019-05-11T10:05:08.831Z,17.47
2019-05-11T10:07:38.404Z,12.83
2019-05-11T10:10:09.194Z,16.00
2019-05-11T10:12:38.981Z,13.87
2019-05-11T10:15:08.964Z,15.47
2019-05-11T10:17:38.654Z,16.10
2019-05-11T10:20:09.218Z,16.17
2019-05-11T10:22:38.984Z,12.17
2019-05-11T10:25:09.263Z,14.77
2019-05-11T10:27:39.020Z,19.33
2019-05-11T10:30:11.016Z,15.20
2019-05-11T10:32:41.479Z,13.50
2019-05-11T10:35:11.046Z,15.73
2019-05-11T10:37:40.448Z,12.57
2019-05-11T10:40:10.297Z,14.30
2019-05-11T10:42:39.684Z,12.20
2019-05-11T10:45:09.600Z,13.50
2019-05-11T10:47:39.110Z,16.60
2019-05-11T10:50:09.560Z,15.20
2019-05-11T10:52:38.914Z,17.83
2019-05-11T10:55:08.806Z,14.67
2019-05-11T10:57:38.828Z,12.10
2019-05-11T11:00:10.866Z,13.50
2019-05-11T11:02:40.242Z,10.77
2019-05-11T11:05:10.097Z,11.93
2019-05-11T11:07:39.488Z,13.80
2019-05-11T11:10:09.167Z,11.73
2019-05-11T11:12:38.813Z,9.93
2019-05-11T11:15:09.721Z,11.87
2019-05-11T11:17:39.100Z,10.10
2019-05-11T11:20:10.475Z,14.13
2019-05-11T11:22:43.876Z,11.47
2019-05-11T11:25:11.196Z,13.13
2019-05-11T11:27:40.637Z,13.27
2019-05-11T11:30:10.213Z,14.70
2019-05-11T11:32:39.639Z,12.67
2019-05-11T11:35:09.717Z,13.13
2019-05-11T11:37:39.123Z,12.90
2019-05-11T11:40:09.337Z,11.63
2019-05-11T11:42:38.853Z,12.43
2019-05-11T11:45:09.856Z,13.67
2019-05-11T11:47:39.254Z,14.80
2019-05-11T11:50:09.752Z,9.90
2019-05-11T11:52:39.181Z,10.60
2019-05-11T11:55:09.214Z,14.60
2019-05-11T11:57:38.644Z,17.40
2019-05-11T12:00:09.312Z,13.40
2019-05-11T12:02:39.080Z,10.07
2019-05-11T12:05:08.889Z,12.43
2019-05-11T12:07:38.817Z,10.77
2019-05-11T12:10:09.308Z,10.53
2019-05-11T12:12:38.862Z,14.43
2019-05-11T12:15:08.949Z,12.17
2019-05-11T12:17:38.808Z,12.87
2019-05-11T12:20:09.124Z,14.33
2019-05-11T12:22:38.939Z,13.20
2019-05-11T12:25:08.365Z,11.30
2019-05-11T12:27:38.301Z,13.13
2019-05-11T12:30:09.225Z,11.67
2019-05-11T12:32:45.667Z,12.13
2019-05-11T12:35:17.933Z,12.07
2019-05-11T12:37:48.537Z,11.37
2019-05-11T12:40:19.336Z,13.87
2019-05-11T12:42:49.134Z,13.30
2019-05-11T12:45:18.777Z,13.33
2019-05-11T12:47:48.542Z,13.53
2019-05-11T12:50:20.202Z,12.77
2019-05-11T12:52:49.689Z,11.57
2019-05-11T12:55:19.281Z,13.17
2019-05-11T12:57:48.731Z,11.33
2019-05-11T13:00:18.986Z,14.07
2019-05-11T13:02:48.732Z,14.70
2019-05-11T13:05:18.483Z,12.40
2019-05-11T13:07:48.393Z,14.77
2019-05-11T13:10:18.991Z,16.93
2019-05-11T13:12:49.234Z,14.23
2019-05-11T13:15:19.232Z,12.83
2019-05-11T13:17:49.340Z,14.77
2019-05-11T13:20:18.871Z,18.03
2019-05-11T13:22:49.058Z,14.53
2019-05-11T13:25:18.634Z,18.57
2019-05-11T13:27:49.225Z,14.87
2019-05-11T13:30:19.173Z,14.17
2019-05-11T13:32:49.154Z,12.37
2019-05-11T13:35:18.919Z,13.60
2019-05-11T13:37:48.337Z,14.63
2019-05-11T13:40:18.466Z,15.70
2019-05-11T13:42:49.120Z,20.27
2019-05-11T13:45:19.846Z,19.77
2019-05-11T13:47:55.352Z,15.27
2019-05-11T13:50:20.392Z,16.33
2019-05-11T13:52:49.765Z,14.63
2019-05-11T13:55:19.136Z,15.47
2019-05-11T13:57:48.795Z,20.73
2019-05-11T14:00:18.452Z,18.50
2019-05-11T14:02:48.638Z,12.83
2019-05-11T14:05:18.317Z,13.50
2019-05-11T14:07:48.311Z,11.70
2019-05-11T14:10:18.483Z,13.10
2019-05-11T14:12:48.002Z,14.10
2019-05-11T14:15:18.750Z,12.37
2019-05-11T14:17:57.605Z,14.70
2019-05-11T14:20:20.059Z,16.40
2019-05-11T14:22:49.389Z,12.40
2019-05-11T14:25:18.969Z,9.83
2019-05-11T14:27:48.705Z,16.97
2019-05-11T14:30:19.083Z,17.53
2019-05-11T14:32:48.864Z,16.27
2019-05-11T14:35:18.818Z,15.47
2019-05-11T14:37:48.843Z,19.57
2019-05-11T14:40:18.584Z,13.80
2019-05-11T14:42:49.009Z,14.27
2019-05-11T14:45:18.922Z,17.13
2019-05-11T14:47:48.649Z,18.77
2019-05-11T14:50:18.871Z,14.80
2019-05-11T14:52:49.346Z,12.87
2019-05-11T14:55:19.041Z,15.53
2019-05-11T14:57:48.814Z,14.27
2019-05-11T15:00:18.924Z,13.57
2019-05-11T15:02:49.650Z,13.97
2019-05-11T15:05:21.805Z,12.57
2019-05-11T15:07:52.625Z,11.23
2019-05-11T15:10:23.086Z,11.43
2019-05-11T15:12:52.560Z,12.00
2019-05-11T15:15:22.522Z,10.33
2019-05-11T15:17:51.954Z,11.33
2019-05-11T15:20:22.137Z,9.60
2019-05-11T15:22:51.557Z,13.07
2019-05-11T15:25:21.022Z,11.27
2019-05-11T15:27:50.407Z,12.10
2019-05-11T15:30:20.187Z,10.77
2019-05-11T15:32:49.683Z,8.33
2019-05-11T15:35:19.240Z,11.73
2019-05-11T15:37:48.892Z,9.83
2019-05-11T15:40:19.615Z,12.33
2019-05-11T15:42:49.015Z,12.53
2019-05-11T15:45:20.418Z,5.87
2019-05-11T15:47:49.820Z,5.07
2019-05-11T15:50:19.721Z,8.97
2019-05-11T15:52:49.274Z,7.20
2019-05-11T15:55:19.647Z,3.97
2019-05-11T15:57:49.066Z,3.53
2019-05-11T16:00:18.924Z,1.53
2019-05-11T16:02:49.018Z,1.33
2019-05-11T16:05:19.070Z,2.57
2019-05-11T16:07:49.314Z,1.00
2019-05-11T16:10:19.349Z,1.63
2019-05-11T16:12:49.121Z,1.17
2019-05-11T16:15:19.552Z,2.57
2019-05-11T16:17:49.948Z,1.80
2019-05-11T16:20:19.602Z,1.20
2019-05-11T16:22:49.140Z,1.53
2019-05-11T16:25:19.874Z,1.70
2019-05-11T16:27:49.901Z,1.43
2019-05-11T16:30:21.488Z,1.13
2019-05-11T16:32:50.476Z,1.40
2019-05-11T16:35:20.353Z,1.20
2019-05-11T16:37:49.895Z,1.10
2019-05-11T16:40:20.816Z,1.17
2019-05-11T16:42:50.593Z,1.17
2019-05-11T16:45:23.623Z,1.27
2019-05-11T16:47:51.335Z,1.60
2019-05-11T16:50:20.752Z,2.67
2019-05-11T16:52:50.215Z,2.77
2019-05-11T16:55:19.674Z,0.83
2019-05-11T16:57:49.056Z,1.47
2019-05-11T17:00:19.148Z,0.40
2019-05-11T17:02:49.212Z,3.77
2019-05-11T17:05:26.256Z,3.97
2019-05-11T17:07:50.010Z,2.53
2019-05-11T17:10:19.535Z,1.60
2019-05-11T17:12:49.158Z,2.00
2019-05-11T17:15:19.071Z,1.30
2019-05-11T17:17:49.172Z,2.47
2019-05-11T17:20:19.292Z,2.97
2019-05-11T17:22:48.939Z,2.83
2019-05-11T17:25:19.811Z,2.60
2019-05-11T17:27:49.456Z,2.80
2019-05-11T17:30:20.217Z,1.50
2019-05-11T17:32:50.224Z,2.00
2019-05-11T17:35:19.935Z,3.03
2019-05-11T17:37:49.396Z,6.37
2019-05-11T17:40:23.139Z,4.80
2019-05-11T17:42:53.675Z,2.70
2019-05-11T17:45:21.472Z,1.10
2019-05-11T17:47:50.945Z,3.13
2019-05-11T17:50:20.390Z,2.20
2019-05-11T17:52:49.839Z,3.43
2019-05-11T17:55:19.269Z,4.23
2019-05-11T17:57:50.463Z,2.83
2019-05-11T18:00:20.438Z,1.80
2019-05-11T18:02:49.977Z,1.03
2019-05-11T18:05:19.593Z,1.43
2019-05-11T18:07:49.062Z,1.10
2019-05-11T18:10:19.481Z,1.90
2019-05-11T18:12:49.041Z,2.50
2019-05-11T18:15:18.902Z,1.77
2019-05-11T18:17:49.208Z,2.47
2019-05-11T18:20:21.910Z,2.33
2019-05-11T18:22:49.806Z,5.10
2019-05-11T18:25:19.166Z,1.83
2019-05-11T18:27:48.645Z,2.60
2019-05-11T18:30:19.050Z,5.03
2019-05-11T18:32:49.163Z,2.87
2019-05-11T18:35:19.733Z,3.53
2019-05-11T18:37:49.371Z,2.87
2019-05-11T18:40:19.249Z,3.53
2019-05-11T18:42:49.061Z,2.43
2019-05-11T18:45:19.373Z,2.13
2019-05-11T18:47:49.483Z,2.60
2019-05-11T18:50:29.948Z,2.53
2019-05-11T18:52:50.546Z,3.00
2019-05-11T18:55:20.170Z,3.17
2019-05-11T18:57:49.566Z,2.23
2019-05-11T19:00:20.043Z,4.33
2019-05-11T19:02:49.890Z,2.27
2019-05-11T19:05:19.782Z,2.00
2019-05-11T19:07:49.304Z,2.90
2019-05-11T19:10:18.761Z,3.63
2019-05-11T19:12:48.954Z,4.43
2019-05-11T19:15:19.308Z,3.23
2019-05-11T19:17:49.345Z,3.80
2019-05-11T19:20:19.083Z,2.77
2019-05-11T19:22:48.589Z,1.50
2019-05-11T19:25:18.444Z,2.63
2019-05-11T19:27:50.567Z,2.63
2019-05-11T19:30:20.083Z,3.73
2019-05-11T19:32:49.557Z,4.27
2019-05-11T19:35:21.062Z,3.80
2019-05-11T19:37:50.112Z,4.90
2019-05-11T19:40:19.612Z,2.03
2019-05-11T19:42:55.586Z,2.90
2019-05-11T19:45:25.133Z,4.97
2019-05-11T19:47:54.593Z,7.53
2019-05-11T19:50:24.033Z,3.53
2019-05-11T19:52:53.516Z,2.53
2019-05-11T19:55:22.959Z,3.90
2019-05-11T19:57:52.420Z,2.13
2019-05-11T20:00:22.125Z,1.33
2019-05-11T20:02:51.492Z,1.93
2019-05-11T20:05:20.899Z,1.60
2019-05-11T20:07:50.388Z,2.17
2019-05-11T20:10:19.859Z,1.90
2019-05-11T20:12:49.361Z,2.07
2019-05-11T20:15:19.289Z,3.57
2019-05-11T20:17:49.406Z,1.67
2019-05-11T20:20:19.062Z,1.63
2019-05-11T20:22:48.834Z,1.30
2019-05-11T20:25:19.313Z,0.73
2019-05-11T20:27:51.947Z,0.90
2019-05-11T20:30:21.318Z,1.33
2019-05-11T20:32:50.670Z,0.97
2019-05-11T20:35:20.118Z,1.37
2019-05-11T20:37:49.490Z,1.43
2019-05-11T20:40:18.986Z,1.87
2019-05-11T20:42:48.746Z,0.83
2019-05-11T20:45:18.934Z,0.87
2019-05-11T20:47:49.017Z,1.80
2019-05-11T20:50:18.910Z,0.80
2019-05-11T20:52:48.927Z,0.83
2019-05-11T20:55:18.600Z,0.90
2019-05-11T20:57:48.785Z,1.13
2019-05-11T21:00:19.061Z,0.87
2019-05-11T21:02:49.167Z,0.60
2019-05-11T21:05:18.904Z,0.80
2019-05-11T21:07:48.370Z,0.90
2019-05-11T21:10:17.918Z,0.90
2019-05-11T21:12:47.385Z,1.40
2019-05-11T21:15:18.006Z,1.80
2019-05-11T21:17:48.164Z,3.10
2019-05-11T21:20:19.656Z,1.47
2019-05-11T21:22:49.108Z,3.23
2019-05-11T21:25:18.888Z,1.67
2019-05-11T21:27:48.865Z,1.80
2019-05-11T21:30:18.743Z,2.17
2019-05-11T21:32:48.365Z,6.20
2019-05-11T21:35:19.166Z,1.80
2019-05-11T21:37:49.311Z,2.07
2019-05-11T21:40:18.792Z,3.30
2019-05-11T21:42:48.276Z,2.13
2019-05-11T21:45:19.703Z,2.43
2019-05-11T21:47:49.185Z,2.93
2019-05-11T21:50:19.307Z,2.43
2019-05-11T21:52:49.103Z,1.63
2019-05-11T21:55:18.486Z,1.40
2019-05-11T21:57:49.771Z,2.10
2019-05-11T22:00:19.754Z,2.40
2019-05-11T22:02:49.163Z,1.60
2019-05-11T22:05:20.887Z,1.57
2019-05-11T22:07:49.711Z,2.90
2019-05-11T22:10:19.170Z,3.43
2019-05-11T22:12:49.098Z,2.90
2019-05-11T22:15:19.363Z,3.67
2019-05-11T22:17:48.806Z,1.97
2019-05-11T22:20:18.626Z,3.27
2019-05-11T22:22:48.103Z,1.13
2019-05-11T22:25:18.337Z,1.57
2019-05-11T22:27:48.834Z,1.37
2019-05-11T22:30:18.876Z,1.53
2019-05-11T22:32:48.321Z,2.00
2019-05-11T22:35:18.483Z,2.47
2019-05-11T22:37:48.995Z,0.93
2019-05-11T22:40:18.680Z,1.10
2019-05-11T22:42:48.176Z,1.90
2019-05-11T22:45:18.713Z,1.23
2019-05-11T22:47:49.328Z,1.20
2019-05-11T22:50:18.940Z,1.10
2019-05-11T22:52:48.787Z,0.80
2019-05-11T22:55:19.067Z,0.70
2019-05-11T22:57:48.973Z,0.67
2019-05-11T23:00:27.968Z,0.60
2019-05-11T23:02:58.754Z,0.70
2019-05-11T23:05:29.929Z,3.80
2019-05-11T23:07:59.366Z,0.63
2019-05-11T23:10:28.831Z,0.50
2019-05-11T23:12:58.269Z,1.27
2019-05-11T23:15:27.737Z,0.60
2019-05-11T23:17:59.767Z,0.60
2019-05-11T23:20:30.204Z,0.73
2019-05-11T23:23:01.679Z,0.97
2019-05-11T23:25:30.415Z,0.50
2019-05-11T23:27:59.783Z,0.77
2019-05-11T23:30:29.224Z,3.17
2019-05-11T23:32:58.775Z,1.80
2019-05-11T23:35:29.099Z,1.40
2019-05-11T23:37:58.572Z,4.07
2019-05-11T23:40:28.451Z,1.40
2019-05-11T23:42:58.237Z,3.90
2019-05-11T23:45:28.174Z,0.77
2019-05-11T23:47:58.812Z,0.63
2019-05-11T23:50:28.641Z,0.50
2019-05-11T23:53:06.595Z,1.03
2019-05-11T23:55:29.256Z,0.97
2019-05-11T23:57:58.754Z,2.30
